This is the latest recevied weather packets stored in our database for station/object K1KOF. If no packets are shown the sender has not sent any weather packets the latest 1 day(s).
| Time | Temp. | Humidity | Pressure | Rain* | Wind** | Luminosity | Snow |
|---|---|---|---|---|---|---|---|
| 1778033421 | 19.44° C | 73% | 1024.2 hPa | 0 mm | 0 m/s | 0 W/m² | - |
| 1778033119 | 19.44° C | 73% | 1024.5 hPa | 0 mm | 0 m/s | 0 W/m² | - |
| 1778032816 | 19.44° C | 72% | 1024.4 hPa | 0 mm | 0.45 m/s, 90° | 0 W/m² | - |
| 1778032513 | 20° C | 71% | 1024.5 hPa | 0 mm | 0 m/s | 0 W/m² | - |
| 1778032210 | 19.44° C | 71% | 1024.5 hPa | 0 mm | 0 m/s | 0 W/m² | - |
| 1778031908 | 19.44° C | 70% | 1024.7 hPa | 0 mm | 0 m/s | 0 W/m² | - |
| 1778031603 | 19.44° C | 71% | 1024.5 hPa | 0 mm | 0 m/s | 0 W/m² | - |
| 1778031301 | 19.44° C | 72% | 1024.6 hPa | 0 mm | 0 m/s | 0 W/m² | - |
| 1778030997 | 19.44° C | 72% | 1024.7 hPa | 0 mm | 0 m/s | 0 W/m² | - |
| 1778030694 | 20° C | 72% | 1024.7 hPa | 0 mm | 0 m/s | 0 W/m² | - |
| 1778030391 | 20° C | 71% | 1024.5 hPa | 0 mm | 0.45 m/s, 83° | 0 W/m² | - |
| 1778030088 | 20° C | 71% | 1024.7 hPa | 0 mm | 0.89 m/s, 90° | 0 W/m² | - |
| 1778029785 | 20° C | 70% | 1024.7 hPa | 0 mm | 0 m/s | 0 W/m² | - |
| 1778029484 | 20.56° C | 69% | 1024.5 hPa | 0 mm | 0.45 m/s, 82° | 0 W/m² | - |
| 1778029179 | 20.56° C | 68% | 1024.3 hPa | 0 mm | 0.89 m/s, 90° | 0 W/m² | - |
| 1778028878 | 21.11° C | 66% | 1024.4 hPa | 0 mm | 0.89 m/s, 84° | 0 W/m² | - |
| 1778028572 | 21.11° C | 63% | 1024.5 hPa | 0 mm | 0 m/s | 0 W/m² | - |
| 1778028271 | 21.67° C | 62% | 1024.3 hPa | 0 mm | 0 m/s | 0 W/m² | - |
| 1778027966 | 22.22° C | 62% | 1024.1 hPa | 0 mm | 0 m/s | 0 W/m² | - |
| 1778027663 | 22.78° C | 59% | 1024.1 hPa | 0 mm | 0 m/s | 0 W/m² | - |
| 1778027360 | 22.78° C | 53% | 1024.3 hPa | 0 mm | 0.45 m/s, 192° | 0 W/m² | - |
| 1778027056 | 23.33° C | 52% | 1024.2 hPa | 0 mm | 0 m/s | 0 W/m² | - |
| 1778026751 | 23.33° C | 52% | 1023.8 hPa | 0 mm | 0 m/s | 0 W/m² | - |
| 1778026449 | 23.89° C | 50% | 1024 hPa | 0 mm | 0 m/s | 0 W/m² | - |
| 1778026146 | 23.89° C | 49% | 1023.6 hPa | 0 mm | 0 m/s | 1 W/m² | - |
* Rain latest hour (hover to see other rain measurements)
** Current wind speed in m/s (hover to see current wind gust speed)